TIST/STT METAR and TAF weather

Enter ICAO airport designator
Station Type Date Time Source
TIST METAR 2020/04/05 22:53 UTC NOAA

TIST 052253Z 05003KT 10SM SCT028 OVC035 27/22 A2997 RMK AO2 RAE2158 SLP148 P0000 T02720222


Station Type Date Time Source
TIST Decoded METAR 2020/04/05 22:53 UTC NOAA

Charlotte Amalie St. Thomas, Cyril E. King Airport, Virgin Islands (TIST) 18-20N 064-59W
Apr 05, 2020 - 06:53 PM EDT / 2020.04.05 2253 UTC
Wind: from the NE (050 degrees) at 3 MPH (3 KT):0
Visibility: 10 mile(s):0
Sky conditions: overcast
Precipitation last hour: A trace
Temperature: 81.0 F (27.2 C)
Dew Point: 72.0 F (22.2 C)
Relative Humidity: 74%
Pressure (altimeter): 29.97 in. Hg (1014 hPa)
ob: TIST 052253Z 05003KT 10SM SCT028 OVC035 27/22 A2997 RMK AO2 RAE2158 SLP148 P0000 T02720222
cycle: 23

Station Type Date Time Source
TIST TAF 2020/04/05 18:52 UTC NOAA

TAF TIST 051740Z 0518/0618 VRB03KT P6SM FEW030 FEW070
FM052300 06007KT P6SM FEW030 FEW070
FM061300 06011KT P6SM VCSH SCT030 BKN070

Example: see airport list